sensor_id;sensor_type;location;lat;lon;timestamp;pressure;altitude;pressure_sealevel;temperature;humidity
15193;BME280;7697;51.630;7.484;2022-11-23T00:03:16;98975.59;;;9.46;96.30
15193;BME280;7697;51.630;7.484;2022-11-23T00:08:19;98969.38;;;9.52;95.96
15193;BME280;7697;51.630;7.484;2022-11-23T00:13:24;98979.13;;;9.52;96.25
15193;BME280;7697;51.630;7.484;2022-11-23T00:18:25;98966.50;;;9.54;95.94
15193;BME280;7697;51.630;7.484;2022-11-23T00:23:29;98974.78;;;9.57;95.94
15193;BME280;7697;51.630;7.484;2022-11-23T00:28:31;98977.44;;;9.57;95.92
15193;BME280;7697;51.630;7.484;2022-11-23T00:33:34;98980.06;;;9.57;96.02
15193;BME280;7697;51.630;7.484;2022-11-23T00:38:37;98981.66;;;9.58;95.66
15193;BME280;7697;51.630;7.484;2022-11-23T00:43:40;98974.53;;;9.59;96.13
15193;BME280;7697;51.630;7.484;2022-11-23T00:48:45;98985.69;;;9.61;96.02
15193;BME280;7697;51.630;7.484;2022-11-23T00:53:50;98988.91;;;9.63;96.20
15193;BME280;7697;51.630;7.484;2022-11-23T00:58:54;98983.38;;;9.64;95.84
15193;BME280;7697;51.630;7.484;2022-11-23T01:04:00;98983.72;;;9.68;95.60
15193;BME280;7697;51.630;7.484;2022-11-23T01:09:05;98986.69;;;9.71;95.41
15193;BME280;7697;51.630;7.484;2022-11-23T01:14:09;98986.69;;;9.71;94.90
15193;BME280;7697;51.630;7.484;2022-11-23T01:19:12;98992.56;;;9.73;95.04
15193;BME280;7697;51.630;7.484;2022-11-23T01:24:22;98986.00;;;9.76;94.80
15193;BME280;7697;51.630;7.484;2022-11-23T01:29:24;98986.78;;;9.76;95.22
15193;BME280;7697;51.630;7.484;2022-11-23T01:34:26;98996.81;;;9.74;95.03
15193;BME280;7697;51.630;7.484;2022-11-23T01:39:29;98993.09;;;9.75;95.18
15193;BME280;7697;51.630;7.484;2022-11-23T01:44:32;99007.94;;;9.76;94.92
15193;BME280;7697;51.630;7.484;2022-11-23T01:49:39;99013.81;;;9.78;94.94
15193;BME280;7697;51.630;7.484;2022-11-23T01:54:46;99016.44;;;9.78;94.95
15193;BME280;7697;51.630;7.484;2022-11-23T01:59:52;99027.03;;;9.78;95.75
15193;BME280;7697;51.630;7.484;2022-11-23T02:04:56;99036.69;;;9.73;96.52
15193;BME280;7697;51.630;7.484;2022-11-23T02:10:01;99040.81;;;9.69;96.67
15193;BME280;7697;51.630;7.484;2022-11-23T02:15:03;99038.31;;;9.62;97.48
15193;BME280;7697;51.630;7.484;2022-11-23T02:20:08;99035.56;;;9.57;97.90
15193;BME280;7697;51.630;7.484;2022-11-23T02:25:17;99048.06;;;9.50;98.44
15193;BME280;7697;51.630;7.484;2022-11-23T02:30:21;99044.28;;;9.46;98.97
15193;BME280;7697;51.630;7.484;2022-11-23T02:35:23;99033.72;;;9.46;98.92
15193;BME280;7697;51.630;7.484;2022-11-23T02:40:28;99044.63;;;9.50;99.23
15193;BME280;7697;51.630;7.484;2022-11-23T02:45:36;99042.47;;;9.47;99.11
15193;BME280;7697;51.630;7.484;2022-11-23T02:50:40;99047.25;;;9.50;98.86
15193;BME280;7697;51.630;7.484;2022-11-23T02:55:42;99044.41;;;9.51;98.72
15193;BME280;7697;51.630;7.484;2022-11-23T03:00:45;99054.53;;;9.54;98.62
15193;BME280;7697;51.630;7.484;2022-11-23T03:05:46;99068.31;;;9.56;98.78
15193;BME280;7697;51.630;7.484;2022-11-23T03:10:48;99059.34;;;9.57;98.48
15193;BME280;7697;51.630;7.484;2022-11-23T03:15:53;99053.59;;;9.60;98.81
15193;BME280;7697;51.630;7.484;2022-11-23T03:21:00;99066.34;;;9.63;98.18
15193;BME280;7697;51.630;7.484;2022-11-23T03:26:03;99062.44;;;9.66;98.33
15193;BME280;7697;51.630;7.484;2022-11-23T03:31:06;99065.41;;;9.69;97.83
15193;BME280;7697;51.630;7.484;2022-11-23T03:36:08;99066.22;;;9.70;97.75
15193;BME280;7697;51.630;7.484;2022-11-23T03:41:10;99066.00;;;9.71;97.80
15193;BME280;7697;51.630;7.484;2022-11-23T03:46:13;99057.03;;;9.72;97.36
15193;BME280;7697;51.630;7.484;2022-11-23T03:51:14;99073.00;;;9.77;97.14
15193;BME280;7697;51.630;7.484;2022-11-23T03:56:16;99071.38;;;9.76;97.08
15193;BME280;7697;51.630;7.484;2022-11-23T04:01:20;99072.19;;;9.77;97.39
15193;BME280;7697;51.630;7.484;2022-11-23T04:06:22;99081.06;;;9.71;98.33
15193;BME280;7697;51.630;7.484;2022-11-23T04:11:23;99080.00;;;9.60;99.90
15193;BME280;7697;51.630;7.484;2022-11-23T04:16:26;99085.06;;;9.50;100.00
15193;BME280;7697;51.630;7.484;2022-11-23T04:21:28;99082.66;;;9.49;100.00
15193;BME280;7697;51.630;7.484;2022-11-23T04:26:30;99083.94;;;9.46;100.00
15193;BME280;7697;51.630;7.484;2022-11-23T04:31:33;99083.34;;;9.44;100.00
15193;BME280;7697;51.630;7.484;2022-11-23T04:36:35;99077.47;;;9.42;100.00
15193;BME280;7697;51.630;7.484;2022-11-23T04:41:36;99093.91;;;9.44;100.00
15193;BME280;7697;51.630;7.484;2022-11-23T04:46:39;99091.72;;;9.41;100.00
15193;BME280;7697;51.630;7.484;2022-11-23T04:51:41;99080.34;;;9.40;100.00
15193;BME280;7697;51.630;7.484;2022-11-23T04:56:43;99091.16;;;9.39;100.00
15193;BME280;7697;51.630;7.484;2022-11-23T05:01:46;99090.09;;;9.40;100.00
15193;BME280;7697;51.630;7.484;2022-11-23T05:06:48;99095.88;;;9.37;100.00
15193;BME280;7697;51.630;7.484;2022-11-23T05:11:49;99088.16;;;9.35;100.00
15193;BME280;7697;51.630;7.484;2022-11-23T05:16:52;99091.63;;;9.36;100.00
15193;BME280;7697;51.630;7.484;2022-11-23T05:21:54;99091.03;;;9.34;100.00
15193;BME280;7697;51.630;7.484;2022-11-23T05:26:56;99098.97;;;9.34;100.00
15193;BME280;7697;51.630;7.484;2022-11-23T05:31:59;99100.56;;;9.35;100.00
15193;BME280;7697;51.630;7.484;2022-11-23T05:37:00;99095.28;;;9.35;100.00
15193;BME280;7697;51.630;7.484;2022-11-23T05:42:02;99094.69;;;9.33;100.00
15193;BME280;7697;51.630;7.484;2022-11-23T05:47:05;99099.75;;;9.34;100.00
15193;BME280;7697;51.630;7.484;2022-11-23T05:52:07;99106.88;;;9.34;100.00
15193;BME280;7697;51.630;7.484;2022-11-23T05:57:09;99105.75;;;9.30;100.00
15193;BME280;7697;51.630;7.484;2022-11-23T06:02:12;99103.66;;;9.32;100.00
15193;BME280;7697;51.630;7.484;2022-11-23T06:07:14;99104.69;;;9.31;100.00
15193;BME280;7697;51.630;7.484;2022-11-23T06:12:16;99107.91;;;9.33;100.00
15193;BME280;7697;51.630;7.484;2022-11-23T06:17:19;99097.94;;;9.35;100.00
15193;BME280;7697;51.630;7.484;2022-11-23T06:22:20;99100.56;;;9.35;100.00
15193;BME280;7697;51.630;7.484;2022-11-23T06:27:22;99097.94;;;9.35;100.00
15193;BME280;7697;51.630;7.484;2022-11-23T06:32:25;99113.56;;;9.36;100.00
15193;BME280;7697;51.630;7.484;2022-11-23T06:37:27;99099.53;;;9.36;100.00
15193;BME280;7697;51.630;7.484;2022-11-23T06:42:28;99113.34;;;9.38;100.00
15193;BME280;7697;51.630;7.484;2022-11-23T06:47:31;99108.38;;;9.41;100.00
15193;BME280;7697;51.630;7.484;2022-11-23T06:52:33;99107.13;;;9.44;100.00
15193;BME280;7697;51.630;7.484;2022-11-23T06:57:35;99112.06;;;9.40;100.00
15193;BME280;7697;51.630;7.484;2022-11-23T07:02:38;99124.22;;;9.41;100.00
15193;BME280;7697;51.630;7.484;2022-11-23T07:07:39;99120.56;;;9.43;100.00
15193;BME280;7697;51.630;7.484;2022-11-23T07:12:41;99135.16;;;9.45;100.00
15193;BME280;7697;51.630;7.484;2022-11-23T07:17:44;99123.44;;;9.41;100.00
15193;BME280;7697;51.630;7.484;2022-11-23T07:22:46;99136.63;;;9.41;100.00
15193;BME280;7697;51.630;7.484;2022-11-23T07:27:54;99144.94;;;9.45;100.00
15193;BME280;7697;51.630;7.484;2022-11-23T07:32:59;99143.19;;;9.50;100.00
15193;BME280;7697;51.630;7.484;2022-11-23T07:38:02;99158.25;;;9.50;100.00
15193;BME280;7697;51.630;7.484;2022-11-23T07:43:06;99154.81;;;9.49;100.00
15193;BME280;7697;51.630;7.484;2022-11-23T07:48:11;99168.16;;;9.54;100.00
15193;BME280;7697;51.630;7.484;2022-11-23T07:53:12;99166.66;;;9.58;100.00
15193;BME280;7697;51.630;7.484;2022-11-23T07:58:14;99171.50;;;9.61;99.25
15193;BME280;7697;51.630;7.484;2022-11-23T08:03:18;99173.78;;;9.69;98.82
15193;BME280;7697;51.630;7.484;2022-11-23T08:08:20;99183.94;;;9.72;98.59
15193;BME280;7697;51.630;7.484;2022-11-23T08:13:22;99176.69;;;9.79;97.80
15193;BME280;7697;51.630;7.484;2022-11-23T08:18:25;99184.50;;;9.86;97.20
15193;BME280;7697;51.630;7.484;2022-11-23T08:23:27;99182.44;;;9.88;96.52
15193;BME280;7697;51.630;7.484;2022-11-23T08:28:29;99176.00;;;9.96;96.26
15193;BME280;7697;51.630;7.484;2022-11-23T08:33:32;99177.63;;;10.08;95.42
15193;BME280;7697;51.630;7.484;2022-11-23T08:38:34;99181.34;;;10.19;94.78
15193;BME280;7697;51.630;7.484;2022-11-23T08:43:35;99176.38;;;10.34;93.00
15193;BME280;7697;51.630;7.484;2022-11-23T08:48:38;99175.56;;;10.45;91.76
15193;BME280;7697;51.630;7.484;2022-11-23T08:53:40;99181.59;;;10.58;91.59
15193;BME280;7697;51.630;7.484;2022-11-23T08:58:42;99173.28;;;10.66;90.08
15193;BME280;7697;51.630;7.484;2022-11-23T09:03:45;99180.69;;;10.64;90.37
15193;BME280;7697;51.630;7.484;2022-11-23T09:08:46;99174.91;;;10.67;89.45
15193;BME280;7697;51.630;7.484;2022-11-23T09:13:48;99180.53;;;10.82;89.10
15193;BME280;7697;51.630;7.484;2022-11-23T09:18:54;99183.78;;;11.01;87.64
15193;BME280;7697;51.630;7.484;2022-11-23T09:23:56;99186.50;;;11.17;84.63
15193;BME280;7697;51.630;7.484;2022-11-23T09:28:58;99179.03;;;11.31;84.17
15193;BME280;7697;51.630;7.484;2022-11-23T09:34:01;99187.03;;;11.48;83.52
15193;BME280;7697;51.630;7.484;2022-11-23T09:39:03;99189.00;;;11.86;82.09
15193;BME280;7697;51.630;7.484;2022-11-23T09:44:09;99186.69;;;12.28;80.52
15193;BME280;7697;51.630;7.484;2022-11-23T09:49:19;99203.91;;;12.64;77.74
15193;BME280;7697;51.630;7.484;2022-11-23T09:54:25;99190.88;;;12.84;77.88
15193;BME280;7697;51.630;7.484;2022-11-23T09:59:39;99190.78;;;13.01;76.99
15193;BME280;7697;51.630;7.484;2022-11-23T10:04:43;99199.09;;;13.04;74.65
15193;BME280;7697;51.630;7.484;2022-11-23T10:09:51;99199.78;;;12.95;73.58
15193;BME280;7697;51.630;7.484;2022-11-23T10:15:03;99199.97;;;12.88;74.37
15193;BME280;7697;51.630;7.484;2022-11-23T10:20:20;99200.50;;;12.90;75.40
15193;BME280;7697;51.630;7.484;2022-11-23T10:25:37;99202.78;;;13.03;75.00
15193;BME280;7697;51.630;7.484;2022-11-23T10:30:40;99199.00;;;12.99;74.26
15193;BME280;7697;51.630;7.484;2022-11-23T10:35:43;99207.22;;;12.98;74.28
15193;BME280;7697;51.630;7.484;2022-11-23T10:40:52;99201.19;;;12.81;73.94
15193;BME280;7697;51.630;7.484;2022-11-23T10:46:23;99209.03;;;12.49;73.97
15193;BME280;7697;51.630;7.484;2022-11-23T10:51:31;99197.31;;;12.28;74.45
15193;BME280;7697;51.630;7.484;2022-11-23T10:56:34;99207.72;;;12.13;75.31
15193;BME280;7697;51.630;7.484;2022-11-23T11:01:35;99205.25;;;12.06;74.95
15193;BME280;7697;51.630;7.484;2022-11-23T11:06:38;99208.13;;;12.05;75.09
15193;BME280;7697;51.630;7.484;2022-11-23T11:11:45;99178.38;;;12.02;74.77
15193;BME280;7697;51.630;7.484;2022-11-23T11:16:49;99189.09;;;12.08;74.87
15193;BME280;7697;51.630;7.484;2022-11-23T11:21:53;99178.47;;;12.08;74.38
15193;BME280;7697;51.630;7.484;2022-11-23T11:26:57;99161.75;;;12.07;73.35
15193;BME280;7697;51.630;7.484;2022-11-23T11:32:01;99160.38;;;12.05;73.86
15193;BME280;7697;51.630;7.484;2022-11-23T11:37:11;99152.41;;;12.05;73.71
15193;BME280;7697;51.630;7.484;2022-11-23T11:42:17;99149.75;;;12.05;73.83
15193;BME280;7697;51.630;7.484;2022-11-23T11:47:26;99144.44;;;12.05;72.10
15193;BME280;7697;51.630;7.484;2022-11-23T11:52:35;99140.81;;;12.11;71.44
15193;BME280;7697;51.630;7.484;2022-11-23T11:57:41;99128.81;;;12.08;71.69
15193;BME280;7697;51.630;7.484;2022-11-23T12:02:54;99122.22;;;12.11;71.73
15193;BME280;7697;51.630;7.484;2022-11-23T12:08:04;99122.22;;;12.11;71.44
15193;BME280;7697;51.630;7.484;2022-11-23T12:13:09;99112.56;;;12.21;71.25
15193;BME280;7697;51.630;7.484;2022-11-23T12:18:22;99121.69;;;12.30;71.12
15193;BME280;7697;51.630;7.484;2022-11-23T12:23:39;99130.44;;;12.53;70.68
15193;BME280;7697;51.630;7.484;2022-11-23T12:29:00;99132.31;;;12.74;68.07
15193;BME280;7697;51.630;7.484;2022-11-23T12:34:13;99139.47;;;12.95;67.56
15193;BME280;7697;51.630;7.484;2022-11-23T12:39:43;99137.31;;;13.19;66.92
15193;BME280;7697;51.630;7.484;2022-11-23T12:44:57;99138.78;;;13.32;67.60
15193;BME280;7697;51.630;7.484;2022-11-23T12:50:12;99153.25;;;13.14;67.00
15193;BME280;7697;51.630;7.484;2022-11-23T12:55:22;99140.50;;;12.94;68.10
15193;BME280;7697;51.630;7.484;2022-11-23T13:00:28;99139.94;;;12.92;67.81
15193;BME280;7697;51.630;7.484;2022-11-23T13:05:46;99142.25;;;12.84;68.18
15193;BME280;7697;51.630;7.484;2022-11-23T13:11:06;99140.63;;;12.83;68.13
15193;BME280;7697;51.630;7.484;2022-11-23T13:16:36;99136.03;;;13.00;66.89
15193;BME280;7697;51.630;7.484;2022-11-23T13:21:43;99141.34;;;13.22;66.09
15193;BME280;7697;51.630;7.484;2022-11-23T13:32:44;99128.19;;;13.74;63.63
15193;BME280;7697;51.630;7.484;2022-11-23T13:38:17;99109.56;;;13.69;64.74
15193;BME280;7697;51.630;7.484;2022-11-23T13:43:25;99110.38;;;13.74;64.61
15193;BME280;7697;51.630;7.484;2022-11-23T13:48:29;99091.94;;;13.63;63.25
15193;BME280;7697;51.630;7.484;2022-11-23T13:53:33;99081.44;;;13.46;64.00
15193;BME280;7697;51.630;7.484;2022-11-23T13:58:37;99081.09;;;13.32;62.86
15193;BME280;7697;51.630;7.484;2022-11-23T14:03:49;99078.59;;;13.21;63.46
15193;BME280;7697;51.630;7.484;2022-11-23T14:08:59;99085.78;;;13.25;63.78
15193;BME280;7697;51.630;7.484;2022-11-23T14:14:04;99083.31;;;13.13;63.42
15193;BME280;7697;51.630;7.484;2022-11-23T14:19:17;99089.41;;;12.87;64.41
15193;BME280;7697;51.630;7.484;2022-11-23T14:25:00;99071.31;;;12.57;63.88
15193;BME280;7697;51.630;7.484;2022-11-23T14:30:42;99078.66;;;12.28;64.59
15193;BME280;7697;51.630;7.484;2022-11-23T14:35:53;99082.50;;;12.16;65.75
15193;BME280;7697;51.630;7.484;2022-11-23T14:41:04;99084.09;;;11.95;66.32
15193;BME280;7697;51.630;7.484;2022-11-23T14:46:13;99089.19;;;11.80;66.98
15193;BME280;7697;51.630;7.484;2022-11-23T14:51:18;99081.53;;;11.66;67.44
15193;BME280;7697;51.630;7.484;2022-11-23T14:56:28;99089.03;;;11.53;68.03
15193;BME280;7697;51.630;7.484;2022-11-23T15:01:33;99081.63;;;11.38;68.06
15193;BME280;7697;51.630;7.484;2022-11-23T15:06:39;99079.38;;;11.30;68.56
15193;BME280;7697;51.630;7.484;2022-11-23T15:11:43;99091.19;;;11.22;68.92
15193;BME280;7697;51.630;7.484;2022-11-23T15:16:44;99082.50;;;11.10;69.58
15193;BME280;7697;51.630;7.484;2022-11-23T15:21:48;99089.78;;;11.03;69.79
15193;BME280;7697;51.630;7.484;2022-11-23T15:26:50;99101.34;;;10.97;69.92
15193;BME280;7697;51.630;7.484;2022-11-23T15:31:51;99102.84;;;10.93;70.48
15193;BME280;7697;51.630;7.484;2022-11-23T15:36:55;99097.25;;;10.89;70.26
15193;BME280;7697;51.630;7.484;2022-11-23T15:41:57;99106.91;;;10.84;70.55
15193;BME280;7697;51.630;7.484;2022-11-23T15:47:01;99113.03;;;10.84;70.91
15193;BME280;7697;51.630;7.484;2022-11-23T15:52:10;99114.88;;;10.84;70.59
15193;BME280;7697;51.630;7.484;2022-11-23T15:57:18;99124.91;;;10.82;71.30
15193;BME280;7697;51.630;7.484;2022-11-23T16:02:24;99120.16;;;10.84;71.32
15193;BME280;7697;51.630;7.484;2022-11-23T16:07:29;99126.50;;;10.83;71.63
15193;BME280;7697;51.630;7.484;2022-11-23T16:12:32;99134.13;;;10.79;73.55
15193;BME280;7697;51.630;7.484;2022-11-23T16:17:34;99141.72;;;10.76;73.31
15193;BME280;7697;51.630;7.484;2022-11-23T16:22:41;99148.06;;;10.75;73.86
15193;BME280;7697;51.630;7.484;2022-11-23T16:27:56;99147.50;;;10.73;74.36
15193;BME280;7697;51.630;7.484;2022-11-23T16:32:58;99160.84;;;10.78;74.15
15193;BME280;7697;51.630;7.484;2022-11-23T16:38:01;99170.78;;;10.71;75.03
15193;BME280;7697;51.630;7.484;2022-11-23T16:43:02;99186.16;;;10.74;75.01
15193;BME280;7697;51.630;7.484;2022-11-23T16:48:35;99192.41;;;10.68;76.27
15193;BME280;7697;51.630;7.484;2022-11-23T16:53:40;99209.81;;;10.64;76.60
15193;BME280;7697;51.630;7.484;2022-11-23T16:58:42;99213.16;;;10.59;77.64
15193;BME280;7697;51.630;7.484;2022-11-23T17:03:43;99219.25;;;10.60;77.30
15193;BME280;7697;51.630;7.484;2022-11-23T17:08:46;99226.38;;;10.59;77.02
15193;BME280;7697;51.630;7.484;2022-11-23T17:13:50;99234.09;;;10.61;77.27
15193;BME280;7697;51.630;7.484;2022-11-23T17:18:53;99244.69;;;10.61;77.37
15193;BME280;7697;51.630;7.484;2022-11-23T17:23:56;99255.84;;;10.63;77.45
15193;BME280;7697;51.630;7.484;2022-11-23T17:29:00;99265.28;;;10.59;78.34
15193;BME280;7697;51.630;7.484;2022-11-23T17:34:02;99255.84;;;10.51;78.73
15193;BME280;7697;51.630;7.484;2022-11-23T17:39:05;99271.88;;;10.44;80.30
15193;BME280;7697;51.630;7.484;2022-11-23T17:44:08;99270.13;;;10.38;80.94
15193;BME280;7697;51.630;7.484;2022-11-23T17:49:12;99284.28;;;10.32;82.55
15193;BME280;7697;51.630;7.484;2022-11-23T17:54:16;99295.09;;;10.19;83.32
15193;BME280;7697;51.630;7.484;2022-11-23T17:59:18;99295.03;;;10.07;84.40
15193;BME280;7697;51.630;7.484;2022-11-23T18:04:20;99284.78;;;9.99;84.98
15193;BME280;7697;51.630;7.484;2022-11-23T18:09:23;99300.78;;;9.93;85.76
15193;BME280;7697;51.630;7.484;2022-11-23T18:14:25;99266.59;;;9.79;87.16
15193;BME280;7697;51.630;7.484;2022-11-23T18:19:28;99289.44;;;9.74;87.52
15193;BME280;7697;51.630;7.484;2022-11-23T18:24:31;99312.06;;;9.70;87.67
15193;BME280;7697;51.630;7.484;2022-11-23T18:29:33;99312.75;;;9.65;87.98
15193;BME280;7697;51.630;7.484;2022-11-23T18:34:35;99336.19;;;9.62;88.36
15193;BME280;7697;51.630;7.484;2022-11-23T18:39:38;99329.28;;;9.61;88.74
15193;BME280;7697;51.630;7.484;2022-11-23T18:44:40;99334.22;;;9.57;88.53
15193;BME280;7697;51.630;7.484;2022-11-23T18:49:42;99321.44;;;9.54;88.53
15193;BME280;7697;51.630;7.484;2022-11-23T18:54:45;99345.66;;;9.51;88.97
15193;BME280;7697;51.630;7.484;2022-11-23T18:59:47;99351.84;;;9.45;88.69
15193;BME280;7697;51.630;7.484;2022-11-23T19:04:48;99352.66;;;9.46;88.69
15193;BME280;7697;51.630;7.484;2022-11-23T19:09:51;99368.13;;;9.42;88.60
15193;BME280;7697;51.630;7.484;2022-11-23T19:14:53;99374.66;;;9.39;88.36
15193;BME280;7697;51.630;7.484;2022-11-23T19:19:55;99375.72;;;9.38;88.50
15193;BME280;7697;51.630;7.484;2022-11-23T19:24:58;99379.16;;;9.39;88.30
15193;BME280;7697;51.630;7.484;2022-11-23T19:29:59;99386.50;;;9.37;88.46
15193;BME280;7697;51.630;7.484;2022-11-23T19:35:01;99390.97;;;9.36;89.15
15193;BME280;7697;51.630;7.484;2022-11-23T19:40:06;99397.06;;;9.37;88.74
15193;BME280;7697;51.630;7.484;2022-11-23T19:45:08;99412.31;;;9.35;89.34
15193;BME280;7697;51.630;7.484;2022-11-23T19:50:10;99423.69;;;9.35;89.64
15193;BME280;7697;51.630;7.484;2022-11-23T19:55:13;99413.34;;;9.34;89.90
15193;BME280;7697;51.630;7.484;2022-11-23T20:00:16;99419.44;;;9.34;90.24
15193;BME280;7697;51.630;7.484;2022-11-23T20:05:17;99419.44;;;9.34;90.05
15193;BME280;7697;51.630;7.484;2022-11-23T20:10:21;99405.63;;;9.32;90.09
15193;BME280;7697;51.630;7.484;2022-11-23T20:15:23;99426.56;;;9.34;90.82
15193;BME280;7697;51.630;7.484;2022-11-23T20:20:25;99429.19;;;9.34;90.88
15193;BME280;7697;51.630;7.484;2022-11-23T20:25:28;99440.56;;;9.34;91.30
15193;BME280;7697;51.630;7.484;2022-11-23T20:30:31;99446.66;;;9.35;91.90
15193;BME280;7697;51.630;7.484;2022-11-23T20:35:33;99459.66;;;9.36;91.70
15193;BME280;7697;51.630;7.484;2022-11-23T20:40:36;99462.09;;;9.38;91.59
15193;BME280;7697;51.630;7.484;2022-11-23T20:45:38;99464.75;;;9.38;92.20
15193;BME280;7697;51.630;7.484;2022-11-23T20:50:40;99480.00;;;9.36;91.91
15193;BME280;7697;51.630;7.484;2022-11-23T20:55:43;99484.47;;;9.35;91.97
15193;BME280;7697;51.630;7.484;2022-11-23T21:00:45;99488.94;;;9.35;92.02
15193;BME280;7697;51.630;7.484;2022-11-23T21:05:47;99492.00;;;9.32;92.71
15193;BME280;7697;51.630;7.484;2022-11-23T21:10:51;99494.91;;;9.30;92.70
15193;BME280;7697;51.630;7.484;2022-11-23T21:16:10;99498.16;;;9.26;93.05
15193;BME280;7697;51.630;7.484;2022-11-23T21:21:12;99493.69;;;9.26;92.97
15193;BME280;7697;51.630;7.484;2022-11-23T21:26:15;99504.13;;;9.21;93.50
15193;BME280;7697;51.630;7.484;2022-11-23T21:31:16;99496.81;;;9.17;93.22
15193;BME280;7697;51.630;7.484;2022-11-23T21:36:18;99506.78;;;9.15;93.74
15193;BME280;7697;51.630;7.484;2022-11-23T21:41:22;99512.75;;;9.10;93.62
15193;BME280;7697;51.630;7.484;2022-11-23T21:46:24;99514.19;;;9.06;93.82
15193;BME280;7697;51.630;7.484;2022-11-23T21:51:28;99519.31;;;9.01;94.30
15193;BME280;7697;51.630;7.484;2022-11-23T21:56:32;99518.94;;;8.97;95.04
15193;BME280;7697;51.630;7.484;2022-11-23T22:01:35;99521.19;;;8.94;95.04
15193;BME280;7697;51.630;7.484;2022-11-23T22:06:38;99529.94;;;8.94;94.98
15193;BME280;7697;51.630;7.484;2022-11-23T22:11:43;99541.28;;;8.95;95.56
15193;BME280;7697;51.630;7.484;2022-11-23T22:16:46;99544.56;;;8.90;95.42
15193;BME280;7697;51.630;7.484;2022-11-23T22:21:49;99546.41;;;8.90;95.81
15193;BME280;7697;51.630;7.484;2022-11-23T22:26:52;99556.75;;;8.91;96.63
15193;BME280;7697;51.630;7.484;2022-11-23T22:31:53;99565.03;;;8.95;96.01
15193;BME280;7697;51.630;7.484;2022-11-23T22:36:55;99561.63;;;8.94;96.87
15193;BME280;7697;51.630;7.484;2022-11-23T22:41:58;99571.13;;;8.95;97.34
15193;BME280;7697;51.630;7.484;2022-11-23T22:47:00;99578.47;;;8.93;96.76
15193;BME280;7697;51.630;7.484;2022-11-23T22:52:01;99578.03;;;8.96;96.86
15193;BME280;7697;51.630;7.484;2022-11-23T22:57:04;99597.72;;;9.00;97.29
15193;BME280;7697;51.630;7.484;2022-11-23T23:02:06;99592.81;;;9.04;97.37
15193;BME280;7697;51.630;7.484;2022-11-23T23:07:08;99594.00;;;9.08;97.44
15193;BME280;7697;51.630;7.484;2022-11-23T23:12:11;99593.81;;;9.10;97.24
15193;BME280;7697;51.630;7.484;2022-11-23T23:17:13;99610.66;;;9.09;97.54
15193;BME280;7697;51.630;7.484;2022-11-23T23:22:14;99604.97;;;9.12;96.97
15193;BME280;7697;51.630;7.484;2022-11-23T23:27:18;99620.16;;;9.16;97.45
15193;BME280;7697;51.630;7.484;2022-11-23T23:32:19;99631.50;;;9.23;97.50
15193;BME280;7697;51.630;7.484;2022-11-23T23:37:21;99637.59;;;9.24;97.53
15193;BME280;7697;51.630;7.484;2022-11-23T23:42:25;99641.22;;;9.29;97.03
15193;BME280;7697;51.630;7.484;2022-11-23T23:47:27;99643.00;;;9.35;96.68
15193;BME280;7697;51.630;7.484;2022-11-23T23:52:28;99646.03;;;9.39;97.21
15193;BME280;7697;51.630;7.484;2022-11-23T23:57:31;99648.00;;;9.44;97.13
